createdAt,value
2022-10-14T00:01:10.441Z,20.20
2022-10-14T00:03:38.554Z,22.50
2022-10-14T00:06:12.259Z,17.97
2022-10-14T00:08:39.859Z,19.77
2022-10-14T00:11:12.726Z,19.80
2022-10-14T00:13:40.029Z,17.87
2022-10-14T00:16:14.361Z,21.97
2022-10-14T00:18:41.427Z,17.57
2022-10-14T00:21:08.800Z,25.30
2022-10-14T00:23:35.822Z,19.63
2022-10-14T00:26:02.911Z,18.27
2022-10-14T00:28:30.686Z,21.80
2022-10-14T00:31:01.121Z,19.90
2022-10-14T00:33:29.360Z,25.10
2022-10-14T00:36:04.613Z,22.33
2022-10-14T00:38:34.702Z,21.23
2022-10-14T00:41:02.137Z,21.57
2022-10-14T00:43:30.076Z,26.33
2022-10-14T00:45:57.058Z,20.03
2022-10-14T00:48:26.318Z,22.30
2022-10-14T00:50:57.388Z,27.50
2022-10-14T00:53:24.471Z,26.43
2022-10-14T00:55:53.106Z,25.10
2022-10-14T00:58:23.811Z,23.67
2022-10-14T01:00:50.971Z,24.13
2022-10-14T01:03:21.304Z,28.30
2022-10-14T01:06:09.235Z,24.47
2022-10-14T01:08:47.394Z,29.03
2022-10-14T01:11:29.364Z,25.87
2022-10-14T01:14:37.182Z,28.23
2022-10-14T01:17:21.929Z,28.80
2022-10-14T01:20:42.571Z,29.43
2022-10-14T01:23:18.292Z,21.60
2022-10-14T01:26:18.291Z,24.33
2022-10-14T01:28:51.631Z,29.10
2022-10-14T01:31:26.928Z,22.30
2022-10-14T01:33:58.385Z,27.83
2022-10-14T01:36:35.738Z,25.27
2022-10-14T01:39:02.674Z,26.43
2022-10-14T01:41:34.908Z,27.17
2022-10-14T01:44:10.183Z,29.10
2022-10-14T01:46:43.213Z,31.50
2022-10-14T01:49:15.867Z,31.17
2022-10-14T01:52:22.749Z,27.30
2022-10-14T01:54:53.497Z,33.60
2022-10-14T01:57:27.393Z,29.20
2022-10-14T01:59:56.081Z,30.03
2022-10-14T02:02:24.648Z,32.50
2022-10-14T02:04:52.298Z,35.87
2022-10-14T02:07:32.222Z,36.43
2022-10-14T02:10:08.816Z,36.17
2022-10-14T02:12:51.114Z,34.57
2022-10-14T02:15:38.561Z,30.07
2022-10-14T02:18:29.678Z,32.90
2022-10-14T02:21:20.659Z,28.40
2022-10-14T02:23:56.637Z,33.93
2022-10-14T02:26:26.479Z,37.73
2022-10-14T02:28:55.516Z,29.93
2022-10-14T02:31:25.056Z,35.27
2022-10-14T02:33:56.793Z,31.07
2022-10-14T02:36:25.761Z,33.73
2022-10-14T02:38:56.146Z,33.50
2022-10-14T02:41:27.734Z,34.10
2022-10-14T02:43:54.789Z,33.17
2022-10-14T02:46:22.784Z,30.67
2022-10-14T02:48:50.468Z,27.87
2022-10-14T02:51:17.737Z,34.23
2022-10-14T02:53:44.873Z,33.77
2022-10-14T02:56:15.777Z,32.70
2022-10-14T02:58:42.853Z,37.90
2022-10-14T03:01:10.286Z,31.47
2022-10-14T03:03:38.845Z,34.53
2022-10-14T03:06:06.053Z,29.47
2022-10-14T03:08:34.347Z,33.83
2022-10-14T03:11:02.150Z,31.70
2022-10-14T03:13:29.779Z,29.40
2022-10-14T03:15:56.930Z,36.47
2022-10-14T03:18:25.851Z,30.07
2022-10-14T03:20:58.623Z,38.17
2022-10-14T03:23:32.759Z,30.90
2022-10-14T03:25:59.753Z,36.63
2022-10-14T03:28:33.275Z,35.30
2022-10-14T03:31:23.509Z,34.50
2022-10-14T03:34:05.772Z,27.90
2022-10-14T03:36:34.547Z,36.03
2022-10-14T03:39:01.730Z,31.20
2022-10-14T03:41:36.816Z,36.97
2022-10-14T03:44:04.980Z,28.53
2022-10-14T03:46:33.307Z,30.13
2022-10-14T03:49:01.329Z,32.27
2022-10-14T03:51:28.386Z,32.70
2022-10-14T03:54:06.813Z,36.13
2022-10-14T03:56:33.949Z,33.33
2022-10-14T03:59:01.570Z,35.37
2022-10-14T04:01:28.640Z,30.53
2022-10-14T04:04:20.629Z,33.27
2022-10-14T04:06:47.796Z,36.53
2022-10-14T04:09:17.596Z,35.13
2022-10-14T04:11:44.745Z,33.73
2022-10-14T04:14:26.872Z,33.33
2022-10-14T04:16:53.894Z,32.43
2022-10-14T04:19:20.929Z,36.53
2022-10-14T04:21:49.031Z,34.60
2022-10-14T04:24:19.699Z,38.27
2022-10-14T04:26:52.556Z,34.10
2022-10-14T04:29:37.944Z,38.57
2022-10-14T04:32:12.326Z,31.10
2022-10-14T04:34:39.579Z,36.97
2022-10-14T04:37:08.289Z,32.87
2022-10-14T04:39:53.994Z,38.83
2022-10-14T04:42:22.184Z,35.83
2022-10-14T04:44:53.516Z,32.87
2022-10-14T04:47:27.077Z,35.23
2022-10-14T04:49:59.022Z,36.87
2022-10-14T04:52:28.137Z,39.53
2022-10-14T04:55:05.104Z,41.00
2022-10-14T04:57:40.505Z,43.60
2022-10-14T05:00:08.361Z,42.27
2022-10-14T05:02:44.313Z,36.23
2022-10-14T05:05:11.725Z,37.93
2022-10-14T05:07:42.824Z,36.07
2022-10-14T05:10:24.347Z,34.40
2022-10-14T05:12:52.084Z,40.37
2022-10-14T05:15:19.663Z,31.00
2022-10-14T05:17:58.711Z,31.30
2022-10-14T05:20:39.365Z,31.07
2022-10-14T05:23:07.104Z,38.00
2022-10-14T05:25:34.079Z,33.90
2022-10-14T05:28:01.326Z,36.63
2022-10-14T05:30:33.654Z,35.77
2022-10-14T05:33:03.471Z,34.50
2022-10-14T05:35:57.134Z,39.17
2022-10-14T05:38:17.711Z,33.37
2022-10-14T05:40:55.144Z,34.63
2022-10-14T05:43:29.273Z,40.80
2022-10-14T05:45:59.997Z,35.90
2022-10-14T05:48:33.914Z,36.10
2022-10-14T05:51:03.407Z,34.67
2022-10-14T05:53:33.058Z,37.80
2022-10-14T05:56:09.735Z,38.87
2022-10-14T05:58:39.389Z,42.47
2022-10-14T06:01:09.854Z,37.97
2022-10-14T06:03:40.117Z,40.07
2022-10-14T06:06:11.584Z,40.20
2022-10-14T06:08:38.942Z,40.43
2022-10-14T06:11:06.350Z,39.83
2022-10-14T06:13:34.107Z,39.47
2022-10-14T06:16:08.614Z,40.77
2022-10-14T06:18:36.566Z,41.90
2022-10-14T06:21:12.782Z,41.90
2022-10-14T06:23:39.845Z,45.93
2022-10-14T06:26:09.760Z,39.97
2022-10-14T06:28:38.063Z,42.57
2022-10-14T06:31:05.463Z,43.77
2022-10-14T06:33:32.478Z,42.20
2022-10-14T06:36:01.223Z,42.40
2022-10-14T06:38:28.243Z,40.40
2022-10-14T06:40:55.294Z,40.80
2022-10-14T06:43:22.757Z,41.47
2022-10-14T06:45:50.200Z,40.87
2022-10-14T06:48:17.151Z,42.43
2022-10-14T06:50:44.233Z,39.90
2022-10-14T06:53:11.254Z,40.37
2022-10-14T06:55:38.265Z,36.50
2022-10-14T06:58:05.233Z,43.80
2022-10-14T07:00:32.174Z,36.27
2022-10-14T07:02:59.658Z,42.50
2022-10-14T07:05:27.454Z,38.23
2022-10-14T07:07:54.468Z,36.17
2022-10-14T07:10:21.464Z,37.67
2022-10-14T07:12:48.663Z,35.50
2022-10-14T07:15:15.703Z,32.27
2022-10-14T07:17:42.766Z,34.03
2022-10-14T07:20:10.323Z,29.37
2022-10-14T07:22:38.757Z,33.90
2022-10-14T07:25:06.869Z,32.53
2022-10-14T07:27:34.121Z,27.57
2022-10-14T07:30:01.774Z,29.03
2022-10-14T07:32:28.976Z,32.10
2022-10-14T07:34:56.132Z,29.17
2022-10-14T07:37:24.019Z,31.10
2022-10-14T07:39:51.704Z,33.97
2022-10-14T07:42:21.777Z,35.73
2022-10-14T07:44:48.825Z,31.53
2022-10-14T07:47:16.628Z,32.67
2022-10-14T07:49:43.610Z,34.13
2022-10-14T07:52:10.617Z,36.27
2022-10-14T07:54:37.669Z,39.33
2022-10-14T07:57:04.678Z,40.83
2022-10-14T07:59:31.653Z,32.37
2022-10-14T08:01:59.186Z,37.87
2022-10-14T08:04:26.300Z,27.60
2022-10-14T08:06:53.375Z,35.60
2022-10-14T08:09:20.478Z,36.70
2022-10-14T08:11:48.072Z,30.97
2022-10-14T08:14:15.361Z,35.77
2022-10-14T08:16:42.309Z,38.43
2022-10-14T08:19:14.644Z,30.50
2022-10-14T08:21:43.414Z,31.20
2022-10-14T08:24:11.299Z,38.23
2022-10-14T08:26:40.849Z,37.20
2022-10-14T08:29:10.992Z,31.93
2022-10-14T08:31:38.529Z,39.63
2022-10-14T08:34:05.539Z,36.07
2022-10-14T08:36:32.563Z,31.63
2022-10-14T08:38:59.700Z,36.30
2022-10-14T08:41:39.172Z,33.40
2022-10-14T08:44:27.225Z,32.47
2022-10-14T08:46:54.124Z,39.87
2022-10-14T08:49:23.941Z,36.17
2022-10-14T08:52:03.376Z,42.07
2022-10-14T08:54:38.189Z,35.30
2022-10-14T08:57:06.431Z,32.90
2022-10-14T08:59:39.115Z,38.53
2022-10-14T09:02:14.939Z,35.93
2022-10-14T09:04:41.973Z,46.43
2022-10-14T09:07:16.854Z,40.00
2022-10-14T09:09:49.121Z,40.73
2022-10-14T09:12:29.650Z,39.23
2022-10-14T09:15:34.505Z,40.70
2022-10-14T09:18:01.682Z,38.10
2022-10-14T09:20:28.745Z,34.87
2022-10-14T09:23:04.961Z,41.13
2022-10-14T09:25:34.973Z,38.67
2022-10-14T09:28:02.249Z,37.13
2022-10-14T09:30:35.086Z,39.03
2022-10-14T09:33:03.617Z,37.80
2022-10-14T09:35:37.652Z,36.57
2022-10-14T09:38:05.204Z,39.73
2022-10-14T09:40:43.972Z,40.17
2022-10-14T09:43:10.942Z,33.40
2022-10-14T09:45:58.369Z,38.83
2022-10-14T09:48:37.809Z,39.73
2022-10-14T09:51:11.056Z,38.83
2022-10-14T09:53:52.514Z,37.30
2022-10-14T09:56:41.617Z,41.40
2022-10-14T09:59:20.346Z,45.37
2022-10-14T10:02:05.685Z,38.70
2022-10-14T10:04:36.858Z,36.60
2022-10-14T10:07:23.093Z,38.47
2022-10-14T10:09:56.099Z,35.47
2022-10-14T10:12:29.161Z,41.27
2022-10-14T10:14:58.749Z,38.77
2022-10-14T10:17:27.837Z,38.73
2022-10-14T10:20:28.595Z,35.50
2022-10-14T10:22:56.915Z,38.77
2022-10-14T10:25:28.502Z,33.30
2022-10-14T10:27:59.182Z,36.43
2022-10-14T10:30:27.388Z,35.37
2022-10-14T10:33:17.130Z,37.23
2022-10-14T10:36:06.855Z,38.57
2022-10-14T10:38:53.452Z,36.47
2022-10-14T10:41:58.612Z,40.93
2022-10-14T10:44:58.916Z,38.23
2022-10-14T10:47:33.413Z,41.97
2022-10-14T10:50:44.726Z,43.40
2022-10-14T10:53:14.738Z,40.03
2022-10-14T10:56:04.439Z,38.80
2022-10-14T10:58:46.753Z,36.23
2022-10-14T11:01:21.440Z,38.77
2022-10-14T11:04:03.524Z,48.80
2022-10-14T11:07:27.033Z,43.93
2022-10-14T11:10:28.546Z,49.20
2022-10-14T11:13:33.380Z,43.17
2022-10-14T11:16:08.080Z,43.83
2022-10-14T11:18:46.411Z,43.27
2022-10-14T11:21:29.849Z,40.17
2022-10-14T11:24:28.054Z,37.63
2022-10-14T11:27:03.674Z,43.70
2022-10-14T11:29:46.407Z,43.30
2022-10-14T11:32:19.551Z,42.33
2022-10-14T11:35:09.857Z,46.27
2022-10-14T11:37:42.672Z,42.23
2022-10-14T11:40:23.782Z,45.63
2022-10-14T11:43:19.973Z,41.27
2022-10-14T11:46:07.910Z,40.13
2022-10-14T11:48:51.230Z,41.87
2022-10-14T11:51:26.279Z,41.03
2022-10-14T11:54:11.279Z,42.10
2022-10-14T11:56:51.885Z,37.17
2022-10-14T12:00:15.070Z,40.13
2022-10-14T12:02:52.473Z,42.63
2022-10-14T12:05:41.029Z,40.00
2022-10-14T12:08:20.351Z,40.70
2022-10-14T12:10:49.806Z,40.23
2022-10-14T12:13:22.367Z,45.03
2022-10-14T12:15:51.809Z,38.60
2022-10-14T12:18:22.846Z,38.10
2022-10-14T12:21:12.497Z,34.80
2022-10-14T12:23:51.663Z,41.10
2022-10-14T12:26:21.613Z,40.60
2022-10-14T12:28:49.400Z,43.00
2022-10-14T12:31:23.715Z,39.47
2022-10-14T12:34:14.024Z,40.50
2022-10-14T12:36:46.207Z,42.97
2022-10-14T12:39:19.320Z,41.13
2022-10-14T12:41:59.486Z,40.60
2022-10-14T12:44:34.967Z,38.20
2022-10-14T12:47:04.716Z,37.97
2022-10-14T12:49:34.927Z,39.77
2022-10-14T12:52:08.796Z,39.57
2022-10-14T12:54:45.292Z,38.20
2022-10-14T12:57:27.855Z,44.43
2022-10-14T12:59:57.355Z,42.30
2022-10-14T13:02:35.252Z,43.83
2022-10-14T13:05:07.116Z,39.00
2022-10-14T13:07:46.414Z,41.13
2022-10-14T13:10:26.006Z,40.27
2022-10-14T13:12:53.243Z,41.37
2022-10-14T13:15:48.155Z,44.33
2022-10-14T13:18:44.306Z,37.43
2022-10-14T13:21:40.949Z,40.50
2022-10-14T13:24:07.859Z,41.87
2022-10-14T13:27:04.107Z,45.87
2022-10-14T13:29:34.088Z,37.70
2022-10-14T13:32:25.957Z,36.60
2022-10-14T13:35:08.644Z,38.83
2022-10-14T13:37:45.991Z,38.13
2022-10-14T13:40:20.488Z,41.23
2022-10-14T13:42:54.816Z,37.50
2022-10-14T13:45:55.919Z,40.03
2022-10-14T13:48:33.404Z,44.53
2022-10-14T13:51:24.568Z,39.43
2022-10-14T13:54:08.816Z,40.67
2022-10-14T13:56:35.784Z,42.03
2022-10-14T13:59:07.988Z,31.77
2022-10-14T14:01:44.086Z,42.43
2022-10-14T14:04:37.448Z,30.67
2022-10-14T14:07:27.783Z,42.47
2022-10-14T14:09:58.759Z,38.60
2022-10-14T14:12:25.857Z,41.03
2022-10-14T14:14:52.927Z,41.37
2022-10-14T14:17:23.403Z,36.33
2022-10-14T14:19:51.429Z,36.80
2022-10-14T14:22:27.098Z,38.70
2022-10-14T14:25:31.900Z,33.57
2022-10-14T14:28:01.949Z,36.80
2022-10-14T14:30:33.091Z,37.50
2022-10-14T14:33:08.158Z,41.70
2022-10-14T14:35:35.154Z,36.67
2022-10-14T14:38:02.510Z,39.77
2022-10-14T14:40:31.285Z,39.53
2022-10-14T14:43:01.107Z,37.47
2022-10-14T14:45:31.216Z,36.80
2022-10-14T14:48:03.160Z,39.80
2022-10-14T14:50:44.201Z,33.00
2022-10-14T14:53:29.550Z,37.10
2022-10-14T14:55:56.477Z,30.93
2022-10-14T14:58:34.689Z,38.33
2022-10-14T15:01:02.884Z,36.90
2022-10-14T15:03:34.614Z,32.73
2022-10-14T15:06:06.434Z,34.93
2022-10-14T15:08:39.111Z,36.20
2022-10-14T15:11:06.485Z,33.37
2022-10-14T15:13:39.586Z,37.23
2022-10-14T15:16:07.890Z,39.50
2022-10-14T15:18:37.607Z,33.67
2022-10-14T15:21:19.008Z,38.47
2022-10-14T15:23:49.115Z,33.03
2022-10-14T15:26:28.156Z,36.33
2022-10-14T15:29:14.633Z,36.80
2022-10-14T15:31:44.984Z,34.23
2022-10-14T15:34:18.480Z,32.60
2022-10-14T15:36:45.757Z,37.73
2022-10-14T15:39:13.907Z,41.87
2022-10-14T15:41:44.061Z,36.00
2022-10-14T15:44:11.549Z,36.93
2022-10-14T15:46:58.480Z,42.43
2022-10-14T15:49:36.559Z,36.10
2022-10-14T15:52:03.599Z,34.40
2022-10-14T15:54:30.617Z,38.70
2022-10-14T15:56:58.571Z,41.80
2022-10-14T15:59:26.301Z,39.80
2022-10-14T16:01:53.527Z,40.27
2022-10-14T16:04:24.752Z,42.53
2022-10-14T16:06:55.359Z,36.20
2022-10-14T16:09:23.777Z,37.27
2022-10-14T16:11:57.234Z,37.60
2022-10-14T16:14:27.726Z,33.40
2022-10-14T16:16:55.207Z,33.53
2022-10-14T16:19:22.420Z,40.60
2022-10-14T16:21:50.044Z,41.73
2022-10-14T16:24:20.570Z,38.07
2022-10-14T16:26:51.598Z,46.20
2022-10-14T16:29:20.278Z,37.60
2022-10-14T16:31:49.780Z,36.33
2022-10-14T16:34:22.360Z,40.83
2022-10-14T16:36:50.576Z,41.10
2022-10-14T16:39:19.183Z,37.77
2022-10-14T16:41:46.742Z,38.43
2022-10-14T16:44:24.816Z,39.77
2022-10-14T16:47:15.417Z,37.97
2022-10-14T16:49:45.641Z,34.63
2022-10-14T16:52:13.429Z,36.83
2022-10-14T16:54:40.731Z,34.33
2022-10-14T16:57:08.712Z,35.53
2022-10-14T16:59:35.971Z,32.73
2022-10-14T17:02:03.832Z,35.17
2022-10-14T17:04:30.916Z,33.77
2022-10-14T17:06:58.484Z,40.30
2022-10-14T17:12:01.519Z,33.43
2022-10-14T17:14:31.196Z,38.20
2022-10-14T17:16:59.759Z,37.73
2022-10-14T17:19:27.224Z,33.13
2022-10-14T17:21:54.313Z,31.93
2022-10-14T17:24:22.104Z,33.13
2022-10-14T17:26:49.144Z,33.63
2022-10-14T17:29:16.187Z,39.37
2022-10-14T17:31:45.494Z,32.63
2022-10-14T17:34:12.632Z,47.43
2022-10-14T17:36:41.545Z,40.30
2022-10-14T17:39:16.465Z,37.07
2022-10-14T17:41:48.377Z,47.33
2022-10-14T17:44:15.347Z,42.13
2022-10-14T17:46:42.417Z,38.03
2022-10-14T17:49:10.045Z,38.53
2022-10-14T17:51:38.194Z,37.17
2022-10-14T17:54:07.486Z,46.30
2022-10-14T17:56:36.814Z,38.20
2022-10-14T17:59:10.462Z,36.20
2022-10-14T18:02:00.949Z,37.60
2022-10-14T18:04:24.501Z,35.50
2022-10-14T18:06:52.684Z,36.97
2022-10-14T18:09:19.751Z,40.27
2022-10-14T18:12:07.742Z,39.73
2022-10-14T18:14:35.928Z,32.93
2022-10-14T18:17:02.927Z,32.27
2022-10-14T18:19:29.887Z,34.03
2022-10-14T18:21:57.124Z,31.57
2022-10-14T18:24:24.496Z,36.77
2022-10-14T18:26:52.392Z,39.93
2022-10-14T18:29:19.559Z,35.80
2022-10-14T18:31:48.294Z,35.13
2022-10-14T18:34:15.283Z,32.83
2022-10-14T18:36:42.708Z,36.20
2022-10-14T18:39:12.390Z,37.23
2022-10-14T18:41:39.723Z,39.00
2022-10-14T18:44:07.177Z,33.53
2022-10-14T18:46:36.327Z,41.20
2022-10-14T18:49:04.667Z,39.33
2022-10-14T18:51:35.094Z,35.07
2022-10-14T18:54:07.875Z,39.80
2022-10-14T18:56:38.796Z,46.87
2022-10-14T18:59:09.533Z,42.00
2022-10-14T19:01:37.868Z,40.77
2022-10-14T19:04:06.816Z,39.00
2022-10-14T19:06:34.787Z,37.03
2022-10-14T19:09:02.030Z,40.53
2022-10-14T19:11:30.423Z,38.30
2022-10-14T19:13:59.032Z,44.27
2022-10-14T19:16:31.805Z,43.23
2022-10-14T19:19:01.361Z,47.77
2022-10-14T19:21:31.288Z,36.33
2022-10-14T19:23:59.525Z,33.27
2022-10-14T19:26:31.074Z,44.47
2022-10-14T19:28:59.650Z,38.70
2022-10-14T19:31:29.984Z,36.87
2022-10-14T19:33:59.708Z,41.43
2022-10-14T19:36:26.982Z,38.73
2022-10-14T19:38:57.960Z,41.30
2022-10-14T19:41:30.505Z,34.37
2022-10-14T19:43:59.094Z,35.73
2022-10-14T19:46:28.258Z,44.40
2022-10-14T19:48:57.331Z,39.47
2022-10-14T19:51:25.115Z,46.50
2022-10-14T19:53:53.799Z,45.47
2022-10-14T19:56:20.857Z,48.47
2022-10-14T19:58:53.001Z,40.80
2022-10-14T20:01:23.512Z,42.50
2022-10-14T20:03:51.778Z,46.93
2022-10-14T20:06:20.147Z,50.20
2022-10-14T20:08:47.187Z,42.53
2022-10-14T20:11:16.899Z,53.07
2022-10-14T20:13:45.006Z,51.90
2022-10-14T20:16:13.220Z,52.10
2022-10-14T20:18:40.524Z,47.10
2022-10-14T20:21:08.809Z,42.20
2022-10-14T20:23:38.308Z,50.13
2022-10-14T20:26:07.971Z,49.70
2022-10-14T20:28:36.202Z,48.80
2022-10-14T20:31:10.662Z,46.57
2022-10-14T20:33:38.043Z,47.53
2022-10-14T20:36:15.208Z,50.03
2022-10-14T20:38:43.658Z,53.70
2022-10-14T20:41:22.621Z,46.20
2022-10-14T20:43:50.244Z,50.40
2022-10-14T20:46:18.074Z,41.50
2022-10-14T20:48:46.565Z,48.70
2022-10-14T20:51:17.911Z,48.73
2022-10-14T20:53:45.019Z,46.40
2022-10-14T20:56:13.539Z,48.53
2022-10-14T20:58:40.806Z,49.53
2022-10-14T21:01:13.762Z,43.37
2022-10-14T21:03:42.639Z,46.67
2022-10-14T21:06:13.077Z,49.97
2022-10-14T21:08:40.408Z,51.23
2022-10-14T21:11:13.761Z,47.07
2022-10-14T21:13:53.436Z,44.53
2022-10-14T21:16:26.513Z,56.87
2022-10-14T21:19:07.891Z,51.77
2022-10-14T21:21:38.036Z,53.33
2022-10-14T21:24:05.931Z,48.27
2022-10-14T21:26:33.113Z,47.17
2022-10-14T21:29:02.562Z,54.67
2022-10-14T21:31:30.398Z,47.53
2022-10-14T21:34:05.122Z,56.80
2022-10-14T21:36:34.171Z,46.43
2022-10-14T21:39:04.467Z,52.43
2022-10-14T21:41:31.614Z,52.33
2022-10-14T21:43:59.399Z,51.90
2022-10-14T21:46:27.016Z,50.13
2022-10-14T21:48:58.815Z,50.17
2022-10-14T21:51:30.294Z,57.53
2022-10-14T21:53:57.967Z,56.67
2022-10-14T21:56:25.955Z,50.10
2022-10-14T21:58:53.722Z,42.47
2022-10-14T22:01:29.092Z,49.73
2022-10-14T22:04:00.294Z,50.77
2022-10-14T22:06:28.231Z,50.73
2022-10-14T22:08:57.828Z,50.80
2022-10-14T22:11:30.778Z,54.30
2022-10-14T22:14:00.357Z,56.67
2022-10-14T22:16:29.206Z,47.80
2022-10-14T22:18:59.211Z,49.70
2022-10-14T22:21:27.861Z,44.73
2022-10-14T22:23:54.941Z,55.47
2022-10-14T22:26:24.289Z,57.93
2022-10-14T22:29:15.677Z,57.20
2022-10-14T22:31:43.647Z,55.20
2022-10-14T22:34:13.132Z,52.67
2022-10-14T22:36:40.720Z,48.10
2022-10-14T22:39:13.385Z,51.87
2022-10-14T22:41:40.373Z,55.37
2022-10-14T22:44:08.498Z,49.50
2022-10-14T22:46:37.741Z,60.33
2022-10-14T22:49:05.131Z,54.10
2022-10-14T22:51:35.036Z,57.70
2022-10-14T22:54:02.636Z,55.67
2022-10-14T22:56:31.561Z,55.67
2022-10-14T22:59:00.763Z,56.77
2022-10-14T23:01:28.102Z,54.70
2022-10-14T23:03:56.976Z,49.53
2022-10-14T23:06:24.516Z,57.67
2022-10-14T23:08:51.500Z,50.47
2022-10-14T23:11:20.812Z,48.10
2022-10-14T23:13:48.253Z,49.60
2022-10-14T23:16:18.183Z,57.53
2022-10-14T23:18:46.490Z,52.77
2022-10-14T23:21:23.223Z,49.00
2022-10-14T23:23:51.430Z,51.20
2022-10-14T23:26:22.416Z,58.47
2022-10-14T23:28:55.087Z,53.03
2022-10-14T23:31:28.430Z,55.63
2022-10-14T23:33:57.616Z,53.40
2022-10-14T23:36:24.623Z,55.93
2022-10-14T23:38:55.339Z,60.20
2022-10-14T23:41:23.169Z,56.53
2022-10-14T23:43:51.591Z,61.13
2022-10-14T23:46:19.591Z,61.47
2022-10-14T23:48:55.418Z,55.77
2022-10-14T23:51:33.515Z,56.97
2022-10-14T23:54:00.474Z,55.33
2022-10-14T23:56:27.481Z,54.93
2022-10-14T23:58:54.396Z,51.73
